Thunder radar more information blitzortung!


Löydät sääaseman tiedot myös:

European Weather Network

Finland Weather Exchange

Weather Underground

AWEKAS



Weather Underground säähistoriasivu

Päivittäin yhteenveto Elokuu 6, 2017 Yksiköt:  Metriset    Englantilaiset   Molemmat
« Edellinen Päivä
Seuraava Päivä »
Päivittäin Viikoittain Kuukausittain Vuosittain Mukautettu
  Korkea: Matala: Keskiarvo:
Lämpötila: -17.8 °C -10.4 °C -9.6 °C
Kastepiste: -17.8 °C -10.7 °C -9.9 °C
Kosteus: Humidity % 90 % 96 %
Tuulen nopeus: 0 km/h 0 km/h 0.2 km/h
Tuulenpuuska: 0 km/h - -
Tuuli:- - NNW
Ilmanpaine: 0 hPa 33741.5 hPa -
Sade: 218.44 mm    
Historical Graphs
 
 
Taulukkotiedot Elokuu 6, 2017
Aika Lämpötila Kastepiste Ilmanpaine Tuuli Tuulen nopeus Tuulenpuuska Kosteus Sademäärä (tunneittain)
-17.8 °C -17.8 °C 0 hPa Calm     Humidity % 0 mm
00:00 -10.3 °C -10.6 °C 33741.5 hPa Calm     97 % 7.62 mm
00:15 -10.3 °C -10.6 °C 33741.5 hPa Calm     97 % 7.62 mm
00:30 -10.2 °C -10.3 °C 33741.5 hPa Calm     98 % 7.62 mm
00:45 -10.2 °C -10.4 °C 33741.5 hPa Calm     97 % 7.62 mm
01:00 -10.2 °C -10.4 °C 33741.5 hPa Calm     97 % 0 mm
01:15 -10.2 °C -10.4 °C 33741.5 hPa Calm     97 % 0 mm
01:30 -10.2 °C -10.3 °C 33741.5 hPa Calm     98 % 0 mm
01:45 -10.2 °C -10.3 °C 33741.5 hPa Calm     98 % 0 mm
02:00 -10.2 °C -10.3 °C 33751.6 hPa Calm     98 % 0 mm
02:15 -10.1 °C -10.3 °C 33751.6 hPa Calm     98 % 0 mm
02:30 -10.1 °C -10.3 °C 33751.6 hPa Calm     98 % 0 mm
02:45 -10.1 °C -10.3 °C 33751.6 hPa Calm     98 % 0 mm
03:00 -10.1 °C -10.2 °C 33765.2 hPa Calm     98 % 0 mm
03:15 -10.1 °C -10.2 °C 33765.2 hPa Calm     98 % 0 mm
03:30 -10.1 °C -10.2 °C 33765.2 hPa Calm     98 % 0 mm
03:45 -10 °C -10.2 °C 33765.2 hPa Calm     98 % 0 mm
04:00 -10.1 °C -10.2 °C 33765.2 hPa Calm     98 % 0 mm
04:15 -10.1 °C -10.2 °C 33765.2 hPa Calm     98 % 0 mm
04:30 -10.1 °C -10.2 °C 33765.2 hPa Calm     98 % 0 mm
04:45 -10.1 °C -10.2 °C 33765.2 hPa Calm     98 % 0 mm
05:00 -10.1 °C -10.3 °C 33765.2 hPa Calm     98 % 0 mm
05:15 -10.1 °C -10.3 °C 33775.4 hPa Calm     98 % 0 mm
05:30 -10.1 °C -10.3 °C 33775.4 hPa Calm     98 % 0 mm
06:00 -10.1 °C -10.3 °C 33775.4 hPa Calm     98 % 0 mm
06:15 -10.1 °C -10.3 °C 33775.4 hPa Calm     98 % 0 mm
06:30 -10.1 °C -10.2 °C 33775.4 hPa Calm     98 % 0 mm
06:45 -10 °C -10.2 °C 33788.9 hPa Calm     98 % 0 mm
07:00 -9.9 °C -10.1 °C 33788.9 hPa Calm   2.6 km/h 98 % 0 mm
07:15 -9.8 °C -9.9 °C 33788.9 hPa Calm     98 % 0 mm
07:30 -9.8 °C -9.9 °C 33788.9 hPa Calm     98 % 0 mm
07:45 -9.8 °C -9.9 °C 33799.1 hPa Calm     98 % 0 mm
08:00 -9.7 °C -9.9 °C 33799.1 hPa Calm     98 % 0 mm
08:15 -9.7 °C -9.9 °C 33799.1 hPa Calm     98 % 0 mm
08:30 -9.8 °C -9.9 °C 33799.1 hPa Calm     98 % 0 mm
08:45 -9.8 °C -9.9 °C 33809.2 hPa Calm     98 % 0 mm
09:00 -9.7 °C -9.9 °C 33809.2 hPa Calm     98 % 0 mm
09:15 -9.7 °C -9.9 °C 33809.2 hPa Calm     98 % 0 mm
09:30 -9.6 °C -9.8 °C 33822.8 hPa Calm     98 % 0 mm
09:45 -9.5 °C -9.7 °C 33822.8 hPa Calm     98 % 0 mm
10:00 -9.4 °C -9.6 °C 33822.8 hPa Calm     98 % 0 mm
10:15 -9.3 °C -9.5 °C 33832.9 hPa Calm     98 % 0 mm
10:30 -9.1 °C -9.3 °C 33832.9 hPa Calm   2.6 km/h 98 % 0 mm
10:45 -8.8 °C -8.9 °C 33832.9 hPa Calm   5.1 km/h 98 % 0 mm
11:00 -8.7 °C -8.9 °C 33832.9 hPa Calm   2.6 km/h 98 % 0 mm
11:15 -8.6 °C -8.9 °C 33832.9 hPa Calm     97 % 0 mm
11:30 -8.2 °C -8.7 °C 33843.1 hPa Calm   2.6 km/h 95 % 0 mm
11:45 -8.6 °C -9.1 °C 33856.6 hPa Calm     94 % 71.12 mm
12:00 -8.7 °C -9.1 °C 33856.6 hPa Calm     96 % 83.82 mm
12:15 -8.7 °C -9.1 °C 33856.6 hPa Calm     96 % 96.52 mm
12:30 -8.7 °C -9.1 °C 33856.6 hPa Calm   2.6 km/h 96 % 96.52 mm
12:45 -8.8 °C -9.2 °C 33856.6 hPa Calm     96 % 25.4 mm
13:00 -8.9 °C -9.2 °C 33866.8 hPa Calm   5.1 km/h 97 % 7.62 mm
13:15 -8.9 °C -9.2 °C 33866.8 hPa Calm   7.7 km/h 97 % 0 mm
13:30 -9 °C -9.4 °C 33866.8 hPa Calm     96 % 7.62 mm
13:45 -9.1 °C -9.3 °C 33866.8 hPa Calm   2.6 km/h 97 % 12.7 mm
14:00 -9 °C -9.3 °C 33880.3 hPa Calm     97 % 12.7 mm
14:15 -8.9 °C -9.1 °C 33866.8 hPa Calm     98 % 12.7 mm
14:30 -8.9 °C -9.2 °C 33880.3 hPa Calm   5.1 km/h 97 % 83.82 mm
14:45 -9.1 °C -9.3 °C 33880.3 hPa Calm     97 % 96.52 mm
15:00 -8.9 °C -9.2 °C 33880.3 hPa Calm   7.7 km/h 97 % 96.52 mm
15:15 -8.8 °C -8.9 °C 33880.3 hPa Calm   10.3 km/h 98 % 104.14 mm
15:30 -8.4 °C -8.6 °C 33880.3 hPa Calm   5.1 km/h 98 % 25.4 mm
15:45 -8.6 °C -8.9 °C 33880.3 hPa Calm     96 % 12.7 mm
16:00 -8.6 °C -8.8 °C 33880.3 hPa Calm     97 % 12.7 mm
16:15 -8.6 °C -8.9 °C 33890.5 hPa Calm   2.6 km/h 96 % 7.62 mm
16:30 -8.8 °C -9.3 °C 33890.5 hPa Calm   5.1 km/h 95 % 0 mm
16:45 -8.8 °C -9.1 °C 33890.5 hPa Calm   2.6 km/h 97 % 0 mm
17:00 -8.6 °C -8.9 °C 33890.5 hPa Calm   10.3 km/h 96 % 0 mm
17:15 -8.4 °C -8.9 °C 33890.5 hPa North 2.6 km/h 15.6 km/h 94 % 0 mm
17:30 -8.3 °C -9 °C 33890.5 hPa NNW 2.6 km/h 12.9 km/h 92 % 0 mm
17:45 -8.4 °C -9.3 °C 33900.6 hPa NNW 2.6 km/h 12.9 km/h 90 % 7.62 mm
18:00 -8.6 °C -9.2 °C 33900.6 hPa Calm   5.1 km/h 93 % 7.62 mm
18:15 -8.8 °C -9.4 °C 33900.6 hPa Calm   5.1 km/h 93 % 7.62 mm
18:30 -9 °C -9.6 °C 33914.2 hPa Calm   10.3 km/h 93 % 7.62 mm
18:45 -9.1 °C -9.6 °C 33914.2 hPa Calm   5.1 km/h 94 % 0 mm
19:00 -9.1 °C -9.8 °C 33914.2 hPa Calm   5.1 km/h 93 % 0 mm
19:15 -9.3 °C -9.8 °C 33924.3 hPa Calm     94 % 0 mm
19:30 -9.3 °C -9.8 °C 33924.3 hPa Calm     94 % 0 mm
19:45 -9.4 °C -9.8 °C 33937.9 hPa Calm   5.1 km/h 95 % 0 mm
20:00 -9.4 °C -9.8 °C 33937.9 hPa Calm   2.6 km/h 95 % 0 mm
20:15 -9.4 °C -9.9 °C 33937.9 hPa Calm   2.6 km/h 95 % 0 mm
20:30 -9.6 °C -10.1 °C 33937.9 hPa Calm     94 % 0 mm
20:45 -9.6 °C -10 °C 33948 hPa Calm     95 % 0 mm
21:00 -9.6 °C -10.1 °C 33948 hPa Calm     95 % 0 mm
21:15 -9.7 °C -10.1 °C 33958.2 hPa Calm   2.6 km/h 95 % 0 mm
21:30 -9.7 °C -10.2 °C 33958.2 hPa Calm     95 % 0 mm
21:45 -9.8 °C -10.3 °C 33958.2 hPa Calm   5.1 km/h 95 % 0 mm
22:00 -9.9 °C -10.3 °C 33971.7 hPa Calm     95 % 0 mm
22:15 -9.9 °C -10.4 °C 33971.7 hPa Calm   2.6 km/h 95 % 0 mm
22:30 -10.1 °C -10.4 °C 33971.7 hPa Calm   2.6 km/h 96 % 0 mm
22:45 -10.1 °C -10.4 °C 33981.9 hPa Calm   5.1 km/h 96 % 0 mm
23:00 -10.2 °C -10.6 °C 33981.9 hPa Calm   5.1 km/h 96 % 0 mm
23:15 -10.2 °C -10.6 °C 33981.9 hPa Calm   2.6 km/h 96 % 0 mm
23:30 -10.3 °C -10.7 °C 33992.1 hPa Calm   7.7 km/h 96 % 0 mm
23:45 -10.4 °C -10.7 °C 33992.1 hPa Calm   5.1 km/h 96 % 0 mm
Esan sääasema
Terveisin Weather Underground - 2.75 mb

Alkuperäinen skripti  Jim McMurry - jmcmurry@mwt.net Sovitettu myös templatelle  Wim van der Kuil - Leuven-Template.eu

Laitteet joita käytämme:

Sääasema
Davis VP2

Sääasemaohjelma
Cumulus

Sääaseman tietokone
Asus EeePC

Palveluntarjoaja
Suncomet

Davis VP2

Cumulus

Asus EeePC

Suncomet